sensor_id;sensor_type;location;lat;lon;timestamp;temperature;humidity
18648;DHT22;9453;50.294;18.644;2022-07-23T04:02:18;20.20;98.50
18648;DHT22;9453;50.294;18.644;2022-07-23T04:04:45;20.30;98.40
18648;DHT22;9453;50.294;18.644;2022-07-23T04:07:13;20.40;98.40
18648;DHT22;9453;50.294;18.644;2022-07-23T04:09:40;20.40;98.30
18648;DHT22;9453;50.294;18.644;2022-07-23T04:12:07;20.50;98.10
18648;DHT22;9453;50.294;18.644;2022-07-23T04:14:37;20.50;97.90
18648;DHT22;9453;50.294;18.644;2022-07-23T04:17:04;20.60;97.50
18648;DHT22;9453;50.294;18.644;2022-07-23T04:19:33;20.60;97.30
18648;DHT22;9453;50.294;18.644;2022-07-23T04:22:01;20.60;97.10
18648;DHT22;9453;50.294;18.644;2022-07-23T04:24:28;20.60;97.00
18648;DHT22;9453;50.294;18.644;2022-07-23T04:26:55;20.70;96.80
18648;DHT22;9453;50.294;18.644;2022-07-23T04:29:22;20.70;96.70
18648;DHT22;9453;50.294;18.644;2022-07-23T04:31:49;20.70;96.70
18648;DHT22;9453;50.294;18.644;2022-07-23T04:34:16;20.70;96.50
18648;DHT22;9453;50.294;18.644;2022-07-23T04:36:44;20.70;96.50
18648;DHT22;9453;50.294;18.644;2022-07-23T04:42:04;20.80;96.60
18648;DHT22;9453;50.294;18.644;2022-07-23T04:44:31;20.90;96.50
18648;DHT22;9453;50.294;18.644;2022-07-23T04:46:58;20.90;96.40
18648;DHT22;9453;50.294;18.644;2022-07-23T04:49:25;20.90;96.30
18648;DHT22;9453;50.294;18.644;2022-07-23T04:51:53;21.00;96.40
18648;DHT22;9453;50.294;18.644;2022-07-23T04:57:35;21.10;96.60
18648;DHT22;9453;50.294;18.644;2022-07-23T05:00:03;21.20;96.70
18648;DHT22;9453;50.294;18.644;2022-07-23T05:02:30;21.30;96.50
18648;DHT22;9453;50.294;18.644;2022-07-23T05:04:57;21.40;96.30
18648;DHT22;9453;50.294;18.644;2022-07-23T05:07:25;21.50;96.00
18648;DHT22;9453;50.294;18.644;2022-07-23T05:09:52;21.70;95.80
18648;DHT22;9453;50.294;18.644;2022-07-23T05:12:19;21.80;95.60
18648;DHT22;9453;50.294;18.644;2022-07-23T05:14:46;21.90;95.50
18648;DHT22;9453;50.294;18.644;2022-07-23T05:17:13;22.00;95.30
18648;DHT22;9453;50.294;18.644;2022-07-23T05:19:40;22.20;95.00
18648;DHT22;9453;50.294;18.644;2022-07-23T05:29:48;22.50;93.40
18648;DHT22;9453;50.294;18.644;2022-07-23T05:32:15;22.60;92.80
18648;DHT22;9453;50.294;18.644;2022-07-23T05:34:45;22.60;92.10
18648;DHT22;9453;50.294;18.644;2022-07-23T05:39:48;22.80;91.50
18648;DHT22;9453;50.294;18.644;2022-07-23T05:42:15;22.90;91.40
18648;DHT22;9453;50.294;18.644;2022-07-23T05:44:42;23.00;91.10
18648;DHT22;9453;50.294;18.644;2022-07-23T05:47:10;23.10;90.70
18648;DHT22;9453;50.294;18.644;2022-07-23T05:49:37;23.20;90.40
18648;DHT22;9453;50.294;18.644;2022-07-23T05:52:05;23.30;90.20
18648;DHT22;9453;50.294;18.644;2022-07-23T05:54:34;23.40;90.10
18648;DHT22;9453;50.294;18.644;2022-07-23T05:57:01;23.50;90.00
18648;DHT22;9453;50.294;18.644;2022-07-23T05:59:27;23.60;89.40
18648;DHT22;9453;50.294;18.644;2022-07-23T06:01:55;23.60;88.80
18648;DHT22;9453;50.294;18.644;2022-07-23T06:04:23;23.70;88.10
18648;DHT22;9453;50.294;18.644;2022-07-23T06:06:50;23.70;87.60
18648;DHT22;9453;50.294;18.644;2022-07-23T06:09:17;23.70;87.30
18648;DHT22;9453;50.294;18.644;2022-07-23T06:11:43;23.80;86.80
18648;DHT22;9453;50.294;18.644;2022-07-23T06:14:10;23.80;86.80
18648;DHT22;9453;50.294;18.644;2022-07-23T06:16:37;23.90;86.80
18648;DHT22;9453;50.294;18.644;2022-07-23T06:19:04;23.90;86.70
18648;DHT22;9453;50.294;18.644;2022-07-23T06:24:08;24.00;86.00
18648;DHT22;9453;50.294;18.644;2022-07-23T06:26:35;24.20;85.30
18648;DHT22;9453;50.294;18.644;2022-07-23T06:29:02;24.20;84.80
18648;DHT22;9453;50.294;18.644;2022-07-23T06:31:29;24.30;83.90
18648;DHT22;9453;50.294;18.644;2022-07-23T06:33:56;24.40;83.30
18648;DHT22;9453;50.294;18.644;2022-07-23T06:38:58;24.40;82.20
18648;DHT22;9453;50.294;18.644;2022-07-23T06:41:27;24.60;81.60
18648;DHT22;9453;50.294;18.644;2022-07-23T06:43:54;24.60;81.50
18648;DHT22;9453;50.294;18.644;2022-07-23T06:46:21;24.60;81.40
18648;DHT22;9453;50.294;18.644;2022-07-23T06:48:48;24.70;81.70
18648;DHT22;9453;50.294;18.644;2022-07-23T06:51:14;24.80;81.90
18648;DHT22;9453;50.294;18.644;2022-07-23T06:53:41;24.80;81.90
18648;DHT22;9453;50.294;18.644;2022-07-23T06:56:14;25.00;81.50
18648;DHT22;9453;50.294;18.644;2022-07-23T06:58:42;25.00;81.00
18648;DHT22;9453;50.294;18.644;2022-07-23T07:01:09;25.10;80.60
18648;DHT22;9453;50.294;18.644;2022-07-23T07:03:36;25.10;80.40
18648;DHT22;9453;50.294;18.644;2022-07-23T07:06:03;25.20;80.00
18648;DHT22;9453;50.294;18.644;2022-07-23T07:08:30;25.30;80.00
18648;DHT22;9453;50.294;18.644;2022-07-23T07:10:57;25.40;80.30
18648;DHT22;9453;50.294;18.644;2022-07-23T07:18:37;25.70;80.20
18648;DHT22;9453;50.294;18.644;2022-07-23T07:21:04;25.80;80.00
18648;DHT22;9453;50.294;18.644;2022-07-23T07:26:46;26.00;78.70
18648;DHT22;9453;50.294;18.644;2022-07-23T07:29:13;26.10;78.00
18648;DHT22;9453;50.294;18.644;2022-07-23T07:31:39;26.10;78.10
18648;DHT22;9453;50.294;18.644;2022-07-23T07:34:08;26.20;77.90
18648;DHT22;9453;50.294;18.644;2022-07-23T07:36:35;26.40;77.80
18648;DHT22;9453;50.294;18.644;2022-07-23T07:39:02;26.50;76.90
18648;DHT22;9453;50.294;18.644;2022-07-23T07:41:30;26.50;76.10
18648;DHT22;9453;50.294;18.644;2022-07-23T07:43:56;26.70;75.70
18648;DHT22;9453;50.294;18.644;2022-07-23T07:46:23;26.70;74.90
18648;DHT22;9453;50.294;18.644;2022-07-23T07:48:53;26.80;74.50
18648;DHT22;9453;50.294;18.644;2022-07-23T07:53:59;27.00;74.20
18648;DHT22;9453;50.294;18.644;2022-07-23T07:56:25;27.10;74.40
18648;DHT22;9453;50.294;18.644;2022-07-23T07:58:52;27.10;73.90
18648;DHT22;9453;50.294;18.644;2022-07-23T08:01:19;27.20;73.40
18648;DHT22;9453;50.294;18.644;2022-07-23T08:03:46;27.30;73.20
18648;DHT22;9453;50.294;18.644;2022-07-23T08:06:13;27.40;73.10
18648;DHT22;9453;50.294;18.644;2022-07-23T08:08:40;27.50;72.90
18648;DHT22;9453;50.294;18.644;2022-07-23T08:11:08;27.60;72.70
18648;DHT22;9453;50.294;18.644;2022-07-23T08:13:35;27.60;72.00
18648;DHT22;9453;50.294;18.644;2022-07-23T08:16:02;27.70;71.80
18648;DHT22;9453;50.294;18.644;2022-07-23T08:18:29;27.70;71.60
18648;DHT22;9453;50.294;18.644;2022-07-23T08:20:56;27.80;71.30
18648;DHT22;9453;50.294;18.644;2022-07-23T08:23:23;27.90;70.20
18648;DHT22;9453;50.294;18.644;2022-07-23T08:25:50;27.90;69.30
18648;DHT22;9453;50.294;18.644;2022-07-23T08:28:18;28.00;68.30
18648;DHT22;9453;50.294;18.644;2022-07-23T08:30:45;28.10;67.80
18648;DHT22;9453;50.294;18.644;2022-07-23T08:33:13;28.30;66.80
18648;DHT22;9453;50.294;18.644;2022-07-23T08:35:42;28.40;66.50
18648;DHT22;9453;50.294;18.644;2022-07-23T08:38:12;28.60;66.20
18648;DHT22;9453;50.294;18.644;2022-07-23T08:40:44;28.90;65.80
18648;DHT22;9453;50.294;18.644;2022-07-23T08:43:14;29.20;64.40
18648;DHT22;9453;50.294;18.644;2022-07-23T08:45:44;29.50;62.10
18648;DHT22;9453;50.294;18.644;2022-07-23T08:48:12;29.70;60.10
18648;DHT22;9453;50.294;18.644;2022-07-23T08:50:42;30.00;59.50
18648;DHT22;9453;50.294;18.644;2022-07-23T08:53:09;30.10;58.30
18648;DHT22;9453;50.294;18.644;2022-07-23T08:55:36;30.20;55.00
18648;DHT22;9453;50.294;18.644;2022-07-23T08:58:03;30.20;54.70
18648;DHT22;9453;50.294;18.644;2022-07-23T09:00:30;30.10;55.50
18648;DHT22;9453;50.294;18.644;2022-07-23T09:02:59;30.20;56.80
18648;DHT22;9453;50.294;18.644;2022-07-23T09:05:25;30.20;57.60
18648;DHT22;9453;50.294;18.644;2022-07-23T09:08:09;30.20;57.00
18648;DHT22;9453;50.294;18.644;2022-07-23T09:10:44;30.10;57.10
18648;DHT22;9453;50.294;18.644;2022-07-23T09:13:27;30.20;56.90
18648;DHT22;9453;50.294;18.644;2022-07-23T09:15:56;30.20;56.60
18648;DHT22;9453;50.294;18.644;2022-07-23T09:18:36;30.30;56.50
18648;DHT22;9453;50.294;18.644;2022-07-23T09:21:12;30.30;56.20
18648;DHT22;9453;50.294;18.644;2022-07-23T09:23:41;30.40;55.80
18648;DHT22;9453;50.294;18.644;2022-07-23T09:26:30;30.50;56.70
18648;DHT22;9453;50.294;18.644;2022-07-23T09:29:04;30.80;56.50
18648;DHT22;9453;50.294;18.644;2022-07-23T09:31:33;31.10;55.60
18648;DHT22;9453;50.294;18.644;2022-07-23T09:34:10;31.30;55.20
18648;DHT22;9453;50.294;18.644;2022-07-23T09:36:38;31.40;54.10
18648;DHT22;9453;50.294;18.644;2022-07-23T09:39:06;31.50;53.80
18648;DHT22;9453;50.294;18.644;2022-07-23T09:41:40;31.60;52.90
18648;DHT22;9453;50.294;18.644;2022-07-23T09:44:09;31.70;53.20
18648;DHT22;9453;50.294;18.644;2022-07-23T09:46:37;31.80;52.70
18648;DHT22;9453;50.294;18.644;2022-07-23T09:49:13;31.90;52.90
18648;DHT22;9453;50.294;18.644;2022-07-23T09:51:45;31.90;52.60
18648;DHT22;9453;50.294;18.644;2022-07-23T09:54:21;32.00;51.80
18648;DHT22;9453;50.294;18.644;2022-07-23T09:56:49;32.00;51.30
18648;DHT22;9453;50.294;18.644;2022-07-23T09:59:17;32.10;51.50
18648;DHT22;9453;50.294;18.644;2022-07-23T10:01:55;32.30;50.90
18648;DHT22;9453;50.294;18.644;2022-07-23T10:04:27;32.40;50.70
18648;DHT22;9453;50.294;18.644;2022-07-23T10:06:55;32.50;50.60
18648;DHT22;9453;50.294;18.644;2022-07-23T10:09:25;32.40;49.90
18648;DHT22;9453;50.294;18.644;2022-07-23T10:11:55;32.60;50.40
18648;DHT22;9453;50.294;18.644;2022-07-23T10:14:27;32.70;50.20
18648;DHT22;9453;50.294;18.644;2022-07-23T10:16:56;32.80;50.10
18648;DHT22;9453;50.294;18.644;2022-07-23T10:19:23;32.90;48.70
18648;DHT22;9453;50.294;18.644;2022-07-23T10:21:55;32.90;48.00
18648;DHT22;9453;50.294;18.644;2022-07-23T10:24:30;33.00;48.20
18648;DHT22;9453;50.294;18.644;2022-07-23T10:27:18;33.00;49.20
18648;DHT22;9453;50.294;18.644;2022-07-23T10:29:51;32.90;48.70
18648;DHT22;9453;50.294;18.644;2022-07-23T10:32:29;32.80;49.00
18648;DHT22;9453;50.294;18.644;2022-07-23T10:35:09;32.70;49.20
18648;DHT22;9453;50.294;18.644;2022-07-23T10:37:45;32.60;49.40
18648;DHT22;9453;50.294;18.644;2022-07-23T10:40:15;32.50;49.60
18648;DHT22;9453;50.294;18.644;2022-07-23T10:42:43;32.40;49.60
18648;DHT22;9453;50.294;18.644;2022-07-23T10:45:30;32.30;50.50
18648;DHT22;9453;50.294;18.644;2022-07-23T10:48:12;32.30;50.10
18648;DHT22;9453;50.294;18.644;2022-07-23T10:50:40;32.30;49.20
18648;DHT22;9453;50.294;18.644;2022-07-23T10:53:10;32.40;49.50
18648;DHT22;9453;50.294;18.644;2022-07-23T10:55:41;32.40;49.80
18648;DHT22;9453;50.294;18.644;2022-07-23T10:58:08;32.40;49.00
18648;DHT22;9453;50.294;18.644;2022-07-23T11:00:36;32.40;49.00
18648;DHT22;9453;50.294;18.644;2022-07-23T11:03:05;32.40;49.10
18648;DHT22;9453;50.294;18.644;2022-07-23T11:05:44;32.50;49.30
18648;DHT22;9453;50.294;18.644;2022-07-23T11:08:19;32.60;48.90
18648;DHT22;9453;50.294;18.644;2022-07-23T11:10:52;32.80;48.60
18648;DHT22;9453;50.294;18.644;2022-07-23T11:13:29;33.00;48.40
18648;DHT22;9453;50.294;18.644;2022-07-23T11:16:17;33.10;48.10
18648;DHT22;9453;50.294;18.644;2022-07-23T11:19:06;33.40;47.50
18648;DHT22;9453;50.294;18.644;2022-07-23T11:21:50;33.50;47.00
18648;DHT22;9453;50.294;18.644;2022-07-23T11:24:20;33.70;46.60
18648;DHT22;9453;50.294;18.644;2022-07-23T11:26:56;33.70;45.30
18648;DHT22;9453;50.294;18.644;2022-07-23T11:29:46;33.70;45.60
18648;DHT22;9453;50.294;18.644;2022-07-23T11:32:30;33.80;45.70
18648;DHT22;9453;50.294;18.644;2022-07-23T11:34:59;33.80;46.00
18648;DHT22;9453;50.294;18.644;2022-07-23T11:37:35;33.90;46.10
18648;DHT22;9453;50.294;18.644;2022-07-23T11:40:07;33.90;46.10
18648;DHT22;9453;50.294;18.644;2022-07-23T11:42:36;33.80;46.00
18648;DHT22;9453;50.294;18.644;2022-07-23T11:45:04;34.00;46.80
18648;DHT22;9453;50.294;18.644;2022-07-23T11:47:31;34.00;45.80
18648;DHT22;9453;50.294;18.644;2022-07-23T11:50:01;34.00;45.40
18648;DHT22;9453;50.294;18.644;2022-07-23T11:52:30;34.10;45.40
18648;DHT22;9453;50.294;18.644;2022-07-23T11:54:59;34.20;45.30
18648;DHT22;9453;50.294;18.644;2022-07-23T11:57:28;34.30;45.30
18648;DHT22;9453;50.294;18.644;2022-07-23T12:00:02;34.30;44.70
18648;DHT22;9453;50.294;18.644;2022-07-23T12:02:30;34.30;43.80
18648;DHT22;9453;50.294;18.644;2022-07-23T12:04:57;34.10;44.40
18648;DHT22;9453;50.294;18.644;2022-07-23T12:07:26;34.00;44.80
18648;DHT22;9453;50.294;18.644;2022-07-23T12:09:53;33.90;45.00
18648;DHT22;9453;50.294;18.644;2022-07-23T12:12:20;33.70;45.30
18648;DHT22;9453;50.294;18.644;2022-07-23T12:14:51;33.70;45.50
18648;DHT22;9453;50.294;18.644;2022-07-23T12:17:18;33.60;45.90
18648;DHT22;9453;50.294;18.644;2022-07-23T12:19:47;33.40;45.70
18648;DHT22;9453;50.294;18.644;2022-07-23T12:22:15;33.20;46.30
18648;DHT22;9453;50.294;18.644;2022-07-23T12:24:55;33.00;46.40
18648;DHT22;9453;50.294;18.644;2022-07-23T12:27:23;32.90;48.10
18648;DHT22;9453;50.294;18.644;2022-07-23T12:29:52;32.90;47.90
18648;DHT22;9453;50.294;18.644;2022-07-23T12:32:21;32.70;47.10
18648;DHT22;9453;50.294;18.644;2022-07-23T12:34:50;32.70;47.80
18648;DHT22;9453;50.294;18.644;2022-07-23T12:37:32;32.70;47.30
18648;DHT22;9453;50.294;18.644;2022-07-23T12:40:19;32.80;47.70
18648;DHT22;9453;50.294;18.644;2022-07-23T12:42:46;33.00;47.40
18648;DHT22;9453;50.294;18.644;2022-07-23T12:45:15;33.10;46.70
18648;DHT22;9453;50.294;18.644;2022-07-23T12:47:59;33.20;47.30
18648;DHT22;9453;50.294;18.644;2022-07-23T12:50:31;33.40;47.70
18648;DHT22;9453;50.294;18.644;2022-07-23T12:53:04;33.50;47.30
18648;DHT22;9453;50.294;18.644;2022-07-23T12:55:31;33.70;47.40
18648;DHT22;9453;50.294;18.644;2022-07-23T12:58:11;33.70;46.70
18648;DHT22;9453;50.294;18.644;2022-07-23T13:01:01;33.70;46.70
18648;DHT22;9453;50.294;18.644;2022-07-23T13:03:34;33.70;46.70
18648;DHT22;9453;50.294;18.644;2022-07-23T13:06:03;33.70;46.50
18648;DHT22;9453;50.294;18.644;2022-07-23T13:08:32;33.70;46.30
18648;DHT22;9453;50.294;18.644;2022-07-23T13:11:00;33.60;46.60
18648;DHT22;9453;50.294;18.644;2022-07-23T13:13:30;33.60;47.00
18648;DHT22;9453;50.294;18.644;2022-07-23T13:15:59;33.50;47.20
18648;DHT22;9453;50.294;18.644;2022-07-23T13:18:27;33.40;47.10
18648;DHT22;9453;50.294;18.644;2022-07-23T13:20:54;33.40;47.30
18648;DHT22;9453;50.294;18.644;2022-07-23T13:23:22;33.40;47.60
18648;DHT22;9453;50.294;18.644;2022-07-23T13:25:49;33.30;48.00
18648;DHT22;9453;50.294;18.644;2022-07-23T13:28:18;33.20;49.00
18648;DHT22;9453;50.294;18.644;2022-07-23T13:30:45;33.00;49.30
18648;DHT22;9453;50.294;18.644;2022-07-23T13:33:14;32.90;49.30
18648;DHT22;9453;50.294;18.644;2022-07-23T13:35:41;32.80;49.30
18648;DHT22;9453;50.294;18.644;2022-07-23T13:38:08;32.70;49.20
18648;DHT22;9453;50.294;18.644;2022-07-23T13:40:36;32.70;49.80
18648;DHT22;9453;50.294;18.644;2022-07-23T13:43:05;32.10;51.70
18648;DHT22;9453;50.294;18.644;2022-07-23T13:45:32;31.00;55.60
18648;DHT22;9453;50.294;18.644;2022-07-23T13:48:00;30.10;58.70
18648;DHT22;9453;50.294;18.644;2022-07-23T13:50:29;29.30;62.00
18648;DHT22;9453;50.294;18.644;2022-07-23T13:52:56;28.40;65.90
18648;DHT22;9453;50.294;18.644;2022-07-23T13:55:23;27.50;70.30
18648;DHT22;9453;50.294;18.644;2022-07-23T13:57:50;27.00;72.80
18648;DHT22;9453;50.294;18.644;2022-07-23T14:00:18;27.00;74.20
18648;DHT22;9453;50.294;18.644;2022-07-23T14:02:45;27.10;74.20
18648;DHT22;9453;50.294;18.644;2022-07-23T14:05:12;27.30;74.30
18648;DHT22;9453;50.294;18.644;2022-07-23T14:07:41;27.90;73.00
18648;DHT22;9453;50.294;18.644;2022-07-23T14:10:10;27.90;71.50
18648;DHT22;9453;50.294;18.644;2022-07-23T14:12:37;27.70;71.10
18648;DHT22;9453;50.294;18.644;2022-07-23T14:15:05;27.10;73.30
18648;DHT22;9453;50.294;18.644;2022-07-23T14:17:34;27.30;73.40
18648;DHT22;9453;50.294;18.644;2022-07-23T14:20:01;27.20;75.00
18648;DHT22;9453;50.294;18.644;2022-07-23T14:22:28;27.10;74.10
18648;DHT22;9453;50.294;18.644;2022-07-23T14:24:56;27.00;74.50
18648;DHT22;9453;50.294;18.644;2022-07-23T14:27:24;26.70;75.80
18648;DHT22;9453;50.294;18.644;2022-07-23T14:29:51;26.80;75.70
18648;DHT22;9453;50.294;18.644;2022-07-23T14:32:18;27.10;75.40
18648;DHT22;9453;50.294;18.644;2022-07-23T14:34:45;27.10;75.60
18648;DHT22;9453;50.294;18.644;2022-07-23T14:37:12;27.00;75.80
18648;DHT22;9453;50.294;18.644;2022-07-23T14:39:39;27.00;76.00
18648;DHT22;9453;50.294;18.644;2022-07-23T14:42:08;26.70;76.20
18648;DHT22;9453;50.294;18.644;2022-07-23T14:44:36;26.80;76.90
18648;DHT22;9453;50.294;18.644;2022-07-23T14:47:04;26.90;76.40
18648;DHT22;9453;50.294;18.644;2022-07-23T14:49:31;26.70;76.20
18648;DHT22;9453;50.294;18.644;2022-07-23T14:51:59;26.60;77.20
18648;DHT22;9453;50.294;18.644;2022-07-23T14:54:27;27.00;76.30
18648;DHT22;9453;50.294;18.644;2022-07-23T14:56:55;27.10;75.30
18648;DHT22;9453;50.294;18.644;2022-07-23T14:59:24;27.20;75.70
18648;DHT22;9453;50.294;18.644;2022-07-23T15:01:51;26.90;75.80
18648;DHT22;9453;50.294;18.644;2022-07-23T15:04:18;26.80;76.20
18648;DHT22;9453;50.294;18.644;2022-07-23T15:06:46;26.90;76.20
18648;DHT22;9453;50.294;18.644;2022-07-23T15:09:13;27.00;75.80
18648;DHT22;9453;50.294;18.644;2022-07-23T15:11:40;26.70;76.20
18648;DHT22;9453;50.294;18.644;2022-07-23T15:14:08;26.60;77.20
18648;DHT22;9453;50.294;18.644;2022-07-23T15:16:36;26.50;77.90
18648;DHT22;9453;50.294;18.644;2022-07-23T15:19:04;26.60;77.90
18648;DHT22;9453;50.294;18.644;2022-07-23T15:21:31;26.50;77.10
18648;DHT22;9453;50.294;18.644;2022-07-23T15:23:58;26.50;77.90
18648;DHT22;9453;50.294;18.644;2022-07-23T15:26:25;26.20;78.10
18648;DHT22;9453;50.294;18.644;2022-07-23T15:28:52;26.20;79.20
18648;DHT22;9453;50.294;18.644;2022-07-23T15:31:19;26.30;79.30
18648;DHT22;9453;50.294;18.644;2022-07-23T15:33:47;26.30;79.40
18648;DHT22;9453;50.294;18.644;2022-07-23T15:36:16;26.20;79.60
18648;DHT22;9453;50.294;18.644;2022-07-23T15:38:43;26.20;79.00
18648;DHT22;9453;50.294;18.644;2022-07-23T15:41:10;26.20;79.80
18648;DHT22;9453;50.294;18.644;2022-07-23T15:43:37;26.20;79.10
18648;DHT22;9453;50.294;18.644;2022-07-23T15:46:04;26.10;80.10
18648;DHT22;9453;50.294;18.644;2022-07-23T15:48:34;26.10;80.20
18648;DHT22;9453;50.294;18.644;2022-07-23T15:51:02;26.20;80.40
18648;DHT22;9453;50.294;18.644;2022-07-23T15:53:30;26.10;80.30
18648;DHT22;9453;50.294;18.644;2022-07-23T15:55:57;26.20;80.20
18648;DHT22;9453;50.294;18.644;2022-07-23T15:58:24;26.20;79.80
18648;DHT22;9453;50.294;18.644;2022-07-23T16:00:51;26.00;80.60
18648;DHT22;9453;50.294;18.644;2022-07-23T16:03:17;25.90;80.70
18648;DHT22;9453;50.294;18.644;2022-07-23T16:05:44;25.80;81.10
18648;DHT22;9453;50.294;18.644;2022-07-23T16:08:13;25.80;81.40
18648;DHT22;9453;50.294;18.644;2022-07-23T16:10:40;25.80;81.60
18648;DHT22;9453;50.294;18.644;2022-07-23T16:13:07;25.60;81.00
18648;DHT22;9453;50.294;18.644;2022-07-23T16:15:34;25.50;81.80
18648;DHT22;9453;50.294;18.644;2022-07-23T16:18:01;25.50;82.10
18648;DHT22;9453;50.294;18.644;2022-07-23T16:20:28;25.40;82.20
18648;DHT22;9453;50.294;18.644;2022-07-23T16:22:55;25.50;82.70
18648;DHT22;9453;50.294;18.644;2022-07-23T16:25:24;25.50;82.60
18648;DHT22;9453;50.294;18.644;2022-07-23T16:27:51;25.50;83.20
18648;DHT22;9453;50.294;18.644;2022-07-23T16:30:18;25.40;82.40
18648;DHT22;9453;50.294;18.644;2022-07-23T16:32:44;25.20;82.70
18648;DHT22;9453;50.294;18.644;2022-07-23T16:35:12;25.20;83.20
18648;DHT22;9453;50.294;18.644;2022-07-23T16:37:39;25.20;83.50
18648;DHT22;9453;50.294;18.644;2022-07-23T16:40:08;25.10;83.50
18648;DHT22;9453;50.294;18.644;2022-07-23T16:42:37;25.10;83.50
18648;DHT22;9453;50.294;18.644;2022-07-23T16:45:06;25.10;84.10
18648;DHT22;9453;50.294;18.644;2022-07-23T16:47:33;25.00;84.00
18648;DHT22;9453;50.294;18.644;2022-07-23T16:50:00;25.00;84.20
18648;DHT22;9453;50.294;18.644;2022-07-23T16:52:27;25.00;84.40
18648;DHT22;9453;50.294;18.644;2022-07-23T16:54:54;25.00;84.50
18648;DHT22;9453;50.294;18.644;2022-07-23T16:57:21;25.00;84.60
18648;DHT22;9453;50.294;18.644;2022-07-23T16:59:50;25.00;84.60
18648;DHT22;9453;50.294;18.644;2022-07-23T17:02:17;25.00;85.10
18648;DHT22;9453;50.294;18.644;2022-07-23T17:04:44;24.90;85.70
18648;DHT22;9453;50.294;18.644;2022-07-23T17:07:11;24.80;85.70
18648;DHT22;9453;50.294;18.644;2022-07-23T17:09:38;24.90;85.90
18648;DHT22;9453;50.294;18.644;2022-07-23T17:12:05;25.00;86.60
18648;DHT22;9453;50.294;18.644;2022-07-23T17:14:32;25.10;86.70
18648;DHT22;9453;50.294;18.644;2022-07-23T17:17:00;25.00;85.90
18648;DHT22;9453;50.294;18.644;2022-07-23T17:19:27;25.00;85.90
18648;DHT22;9453;50.294;18.644;2022-07-23T17:21:54;25.00;85.80
18648;DHT22;9453;50.294;18.644;2022-07-23T17:24:21;25.00;85.70
18648;DHT22;9453;50.294;18.644;2022-07-23T17:26:49;25.00;85.70
18648;DHT22;9453;50.294;18.644;2022-07-23T17:29:15;25.00;85.80
18648;DHT22;9453;50.294;18.644;2022-07-23T17:31:43;25.00;85.90
18648;DHT22;9453;50.294;18.644;2022-07-23T17:34:11;25.00;85.30
18648;DHT22;9453;50.294;18.644;2022-07-23T17:36:38;25.00;85.30
18648;DHT22;9453;50.294;18.644;2022-07-23T17:39:06;25.00;85.30
18648;DHT22;9453;50.294;18.644;2022-07-23T17:41:33;24.90;85.50
18648;DHT22;9453;50.294;18.644;2022-07-23T17:44:00;24.90;85.70
18648;DHT22;9453;50.294;18.644;2022-07-23T17:49:44;24.80;85.60
18648;DHT22;9453;50.294;18.644;2022-07-23T17:52:11;24.80;85.90
18648;DHT22;9453;50.294;18.644;2022-07-23T17:54:38;24.80;86.00
18648;DHT22;9453;50.294;18.644;2022-07-23T17:57:05;24.80;86.10
18648;DHT22;9453;50.294;18.644;2022-07-23T17:59:32;24.80;86.40
18648;DHT22;9453;50.294;18.644;2022-07-23T18:01:58;24.80;86.80
18648;DHT22;9453;50.294;18.644;2022-07-23T18:04:25;24.80;86.90
18648;DHT22;9453;50.294;18.644;2022-07-23T18:06:54;24.80;87.10
18648;DHT22;9453;50.294;18.644;2022-07-23T18:09:21;24.80;87.10
18648;DHT22;9453;50.294;18.644;2022-07-23T18:11:48;24.80;87.40
18648;DHT22;9453;50.294;18.644;2022-07-23T18:14:15;24.80;87.50
18648;DHT22;9453;50.294;18.644;2022-07-23T18:16:42;24.80;87.70
18648;DHT22;9453;50.294;18.644;2022-07-23T18:19:09;24.80;87.90
18648;DHT22;9453;50.294;18.644;2022-07-23T18:21:38;24.80;87.90
18648;DHT22;9453;50.294;18.644;2022-07-23T18:24:07;24.70;87.90
18648;DHT22;9453;50.294;18.644;2022-07-23T18:26:34;24.70;88.00
18648;DHT22;9453;50.294;18.644;2022-07-23T18:29:01;24.70;89.00
18648;DHT22;9453;50.294;18.644;2022-07-23T18:31:28;24.70;88.40
18648;DHT22;9453;50.294;18.644;2022-07-23T18:33:54;24.60;88.30
18648;DHT22;9453;50.294;18.644;2022-07-23T18:36:23;24.60;88.40
18648;DHT22;9453;50.294;18.644;2022-07-23T18:38:50;24.60;88.60
18648;DHT22;9453;50.294;18.644;2022-07-23T18:41:18;24.60;88.90
18648;DHT22;9453;50.294;18.644;2022-07-23T18:43:45;24.50;89.30
18648;DHT22;9453;50.294;18.644;2022-07-23T18:46:13;24.50;89.50
18648;DHT22;9453;50.294;18.644;2022-07-23T18:48:40;24.50;89.70
18648;DHT22;9453;50.294;18.644;2022-07-23T18:51:07;24.50;90.00
18648;DHT22;9453;50.294;18.644;2022-07-23T18:53:48;24.40;90.10
18648;DHT22;9453;50.294;18.644;2022-07-23T18:56:15;24.40;90.20
18648;DHT22;9453;50.294;18.644;2022-07-23T18:58:44;24.40;90.40
18648;DHT22;9453;50.294;18.644;2022-07-23T19:01:11;24.40;90.40
18648;DHT22;9453;50.294;18.644;2022-07-23T19:03:38;24.40;90.40
18648;DHT22;9453;50.294;18.644;2022-07-23T19:06:05;24.40;90.40
18648;DHT22;9453;50.294;18.644;2022-07-23T19:08:32;24.40;90.40
18648;DHT22;9453;50.294;18.644;2022-07-23T19:11:00;24.30;90.60
18648;DHT22;9453;50.294;18.644;2022-07-23T19:13:27;24.30;91.50
18648;DHT22;9453;50.294;18.644;2022-07-23T19:15:55;24.30;91.90
18648;DHT22;9453;50.294;18.644;2022-07-23T19:18:26;24.20;92.20
18648;DHT22;9453;50.294;18.644;2022-07-23T19:20:53;24.20;92.80
18648;DHT22;9453;50.294;18.644;2022-07-23T19:26:06;24.10;93.50
18648;DHT22;9453;50.294;18.644;2022-07-23T19:28:33;24.10;93.40
18648;DHT22;9453;50.294;18.644;2022-07-23T19:31:01;24.00;93.80
18648;DHT22;9453;50.294;18.644;2022-07-23T19:33:29;24.00;94.30
18648;DHT22;9453;50.294;18.644;2022-07-23T19:35:55;23.90;94.80
18648;DHT22;9453;50.294;18.644;2022-07-23T19:38:22;23.90;95.70
18648;DHT22;9453;50.294;18.644;2022-07-23T19:40:49;23.80;95.90
18648;DHT22;9453;50.294;18.644;2022-07-23T19:43:16;23.80;95.70
18648;DHT22;9453;50.294;18.644;2022-07-23T19:45:43;23.80;96.10
18648;DHT22;9453;50.294;18.644;2022-07-23T19:48:11;23.80;96.80
18648;DHT22;9453;50.294;18.644;2022-07-23T19:50:38;23.80;97.00
18648;DHT22;9453;50.294;18.644;2022-07-23T19:53:05;23.70;97.40
18648;DHT22;9453;50.294;18.644;2022-07-23T19:55:32;23.70;97.80
18648;DHT22;9453;50.294;18.644;2022-07-23T19:57:59;23.70;98.20
18648;DHT22;9453;50.294;18.644;2022-07-23T20:00:26;23.70;98.70
18648;DHT22;9453;50.294;18.644;2022-07-23T20:02:53;23.70;99.50
18648;DHT22;9453;50.294;18.644;2022-07-23T20:05:22;23.60;99.50
18648;DHT22;9453;50.294;18.644;2022-07-23T20:07:49;23.60;99.90
18648;DHT22;9453;50.294;18.644;2022-07-23T20:10:16;23.60;99.90
18648;DHT22;9453;50.294;18.644;2022-07-23T20:12:43;23.60;99.90
18648;DHT22;9453;50.294;18.644;2022-07-23T20:15:10;23.60;99.80
18648;DHT22;9453;50.294;18.644;2022-07-23T20:17:38;23.50;99.30
18648;DHT22;9453;50.294;18.644;2022-07-23T20:20:07;23.60;99.50